Buckhaven, United Kingdom
Current Conditions -  °F | °C
As of 2:50 AM on Saturday 29 Nov 2014 (Local Time) from EGQL Reporting Station
Drizzle Drizzle  
Wind Chill: 50°   Ceiling: 400
Heat Index: 50°   Visibility: 2.3mi
Dew Point: 48°   Wind: 12mph
Humidity: 94%   Direction: 120°ESE
Pressure: 29.88"   Gusts: NA
Location:  56.17°N, 3.03°W
Report Text: EGQL 290250Z 12010KT 3700 DZ OVC004 10/09 Q1012 YLO2
Loading
Personal Weather Stations






























Interactive Weather Map New forecast layout! Learn more

10-Day Weather Forecast

Advertisements
Track Severe Weather on mobile